sensor_id;sensor_type;location;lat;lon;timestamp;temperature;humidity
20380;DHT22;10349;48.666;8.948;2022-11-23T00:00:22;1.50;99.90
20380;DHT22;10349;48.666;8.948;2022-11-23T00:02:53;1.40;99.90
20380;DHT22;10349;48.666;8.948;2022-11-23T00:05:19;1.40;99.90
20380;DHT22;10349;48.666;8.948;2022-11-23T00:07:44;1.50;99.90
20380;DHT22;10349;48.666;8.948;2022-11-23T00:10:10;1.40;99.90
20380;DHT22;10349;48.666;8.948;2022-11-23T00:12:36;1.40;99.90
20380;DHT22;10349;48.666;8.948;2022-11-23T00:15:02;1.50;99.90
20380;DHT22;10349;48.666;8.948;2022-11-23T00:17:28;1.50;99.90
20380;DHT22;10349;48.666;8.948;2022-11-23T00:19:53;1.50;99.90
20380;DHT22;10349;48.666;8.948;2022-11-23T00:22:19;1.50;99.90
20380;DHT22;10349;48.666;8.948;2022-11-23T00:24:45;1.60;99.90
20380;DHT22;10349;48.666;8.948;2022-11-23T00:27:11;1.60;99.90
20380;DHT22;10349;48.666;8.948;2022-11-23T00:29:37;1.60;99.90
20380;DHT22;10349;48.666;8.948;2022-11-23T00:32:02;1.60;99.90
20380;DHT22;10349;48.666;8.948;2022-11-23T00:34:28;1.60;99.90
20380;DHT22;10349;48.666;8.948;2022-11-23T00:36:54;1.50;99.90
20380;DHT22;10349;48.666;8.948;2022-11-23T00:39:19;1.50;99.90
20380;DHT22;10349;48.666;8.948;2022-11-23T00:41:45;1.50;99.90
20380;DHT22;10349;48.666;8.948;2022-11-23T00:44:11;1.50;99.90
20380;DHT22;10349;48.666;8.948;2022-11-23T00:46:36;1.60;99.90
20380;DHT22;10349;48.666;8.948;2022-11-23T00:49:03;1.60;99.90
20380;DHT22;10349;48.666;8.948;2022-11-23T00:51:33;1.60;99.90
20380;DHT22;10349;48.666;8.948;2022-11-23T00:54:00;1.60;99.90
20380;DHT22;10349;48.666;8.948;2022-11-23T00:56:27;1.50;99.90
20380;DHT22;10349;48.666;8.948;2022-11-23T00:58:55;1.60;99.90
20380;DHT22;10349;48.666;8.948;2022-11-23T01:01:23;1.50;99.90
20380;DHT22;10349;48.666;8.948;2022-11-23T01:03:54;1.50;99.90
20380;DHT22;10349;48.666;8.948;2022-11-23T01:06:23;1.50;99.90
20380;DHT22;10349;48.666;8.948;2022-11-23T01:08:52;1.60;99.90
20380;DHT22;10349;48.666;8.948;2022-11-23T01:11:19;1.50;99.90
20380;DHT22;10349;48.666;8.948;2022-11-23T01:13:44;1.50;99.90
20380;DHT22;10349;48.666;8.948;2022-11-23T01:16:25;1.50;99.90
20380;DHT22;10349;48.666;8.948;2022-11-23T01:18:56;1.50;99.90
20380;DHT22;10349;48.666;8.948;2022-11-23T01:21:23;1.60;99.90
20380;DHT22;10349;48.666;8.948;2022-11-23T01:23:49;1.60;99.90
20380;DHT22;10349;48.666;8.948;2022-11-23T01:26:15;1.60;99.90
20380;DHT22;10349;48.666;8.948;2022-11-23T01:28:41;1.60;99.90
20380;DHT22;10349;48.666;8.948;2022-11-23T01:31:28;1.60;99.90
20380;DHT22;10349;48.666;8.948;2022-11-23T01:33:54;1.60;99.90
20380;DHT22;10349;48.666;8.948;2022-11-23T01:36:22;1.60;99.90
20380;DHT22;10349;48.666;8.948;2022-11-23T01:38:50;1.60;99.90
20380;DHT22;10349;48.666;8.948;2022-11-23T01:41:19;1.60;99.90
20380;DHT22;10349;48.666;8.948;2022-11-23T01:43:45;1.60;99.90
20380;DHT22;10349;48.666;8.948;2022-11-23T01:46:11;1.60;99.90
20380;DHT22;10349;48.666;8.948;2022-11-23T01:48:38;1.60;99.90
20380;DHT22;10349;48.666;8.948;2022-11-23T01:51:09;1.60;99.90
20380;DHT22;10349;48.666;8.948;2022-11-23T01:53:36;1.60;99.90
20380;DHT22;10349;48.666;8.948;2022-11-23T01:56:05;1.60;99.90
20380;DHT22;10349;48.666;8.948;2022-11-23T01:58:35;1.50;99.90
20380;DHT22;10349;48.666;8.948;2022-11-23T02:01:03;1.50;99.90
20380;DHT22;10349;48.666;8.948;2022-11-23T02:03:29;1.40;99.90
20380;DHT22;10349;48.666;8.948;2022-11-23T02:06:00;1.40;99.90
20380;DHT22;10349;48.666;8.948;2022-11-23T02:08:28;1.40;99.90
20380;DHT22;10349;48.666;8.948;2022-11-23T02:10:58;1.30;99.90
20380;DHT22;10349;48.666;8.948;2022-11-23T02:13:24;1.30;99.90
20380;DHT22;10349;48.666;8.948;2022-11-23T02:15:52;1.30;99.90
20380;DHT22;10349;48.666;8.948;2022-11-23T02:18:22;1.20;99.90
20380;DHT22;10349;48.666;8.948;2022-11-23T02:20:49;1.20;99.90
20380;DHT22;10349;48.666;8.948;2022-11-23T02:26:14;1.20;99.90
20380;DHT22;10349;48.666;8.948;2022-11-23T02:28:54;1.20;99.90
20380;DHT22;10349;48.666;8.948;2022-11-23T02:31:22;1.20;99.90
20380;DHT22;10349;48.666;8.948;2022-11-23T02:33:48;1.20;99.90
20380;DHT22;10349;48.666;8.948;2022-11-23T02:36:30;1.20;99.90
20380;DHT22;10349;48.666;8.948;2022-11-23T02:41:47;1.20;99.90
20380;DHT22;10349;48.666;8.948;2022-11-23T02:44:48;1.10;99.90
20380;DHT22;10349;48.666;8.948;2022-11-23T02:47:18;1.10;99.90
20380;DHT22;10349;48.666;8.948;2022-11-23T02:49:48;1.00;99.90
20380;DHT22;10349;48.666;8.948;2022-11-23T02:52:15;1.00;99.90
20380;DHT22;10349;48.666;8.948;2022-11-23T02:54:41;1.00;99.90
20380;DHT22;10349;48.666;8.948;2022-11-23T02:57:06;1.00;99.90
20380;DHT22;10349;48.666;8.948;2022-11-23T02:59:33;1.00;99.90
20380;DHT22;10349;48.666;8.948;2022-11-23T03:02:00;0.90;99.90
20380;DHT22;10349;48.666;8.948;2022-11-23T03:04:28;1.00;99.90
20380;DHT22;10349;48.666;8.948;2022-11-23T03:06:54;1.00;99.90
20380;DHT22;10349;48.666;8.948;2022-11-23T03:09:20;1.00;99.90
20380;DHT22;10349;48.666;8.948;2022-11-23T03:11:45;0.90;99.90
20380;DHT22;10349;48.666;8.948;2022-11-23T03:14:12;0.90;99.90
20380;DHT22;10349;48.666;8.948;2022-11-23T03:16:47;0.80;99.90
20380;DHT22;10349;48.666;8.948;2022-11-23T03:19:15;0.70;99.90
20380;DHT22;10349;48.666;8.948;2022-11-23T03:21:41;0.60;99.90
20380;DHT22;10349;48.666;8.948;2022-11-23T03:24:07;0.60;99.90
20380;DHT22;10349;48.666;8.948;2022-11-23T03:26:33;0.60;99.90
20380;DHT22;10349;48.666;8.948;2022-11-23T03:29:07;0.50;99.90
20380;DHT22;10349;48.666;8.948;2022-11-23T03:31:33;0.60;99.90
20380;DHT22;10349;48.666;8.948;2022-11-23T03:33:59;0.50;99.90
20380;DHT22;10349;48.666;8.948;2022-11-23T03:36:26;0.40;99.90
20380;DHT22;10349;48.666;8.948;2022-11-23T03:38:51;0.30;99.90
20380;DHT22;10349;48.666;8.948;2022-11-23T03:41:32;0.30;99.90
20380;DHT22;10349;48.666;8.948;2022-11-23T03:43:58;0.40;99.90
20380;DHT22;10349;48.666;8.948;2022-11-23T03:46:24;0.40;99.90
20380;DHT22;10349;48.666;8.948;2022-11-23T03:48:49;0.40;99.90
20380;DHT22;10349;48.666;8.948;2022-11-23T03:51:15;0.40;99.90
20380;DHT22;10349;48.666;8.948;2022-11-23T03:53:41;0.50;99.90
20380;DHT22;10349;48.666;8.948;2022-11-23T03:56:07;0.40;99.90
20380;DHT22;10349;48.666;8.948;2022-11-23T03:58:37;0.50;99.90
20380;DHT22;10349;48.666;8.948;2022-11-23T04:01:07;0.50;99.90
20380;DHT22;10349;48.666;8.948;2022-11-23T04:03:33;0.50;99.90
20380;DHT22;10349;48.666;8.948;2022-11-23T04:06:12;0.50;99.90
20380;DHT22;10349;48.666;8.948;2022-11-23T04:08:57;0.50;99.90
20380;DHT22;10349;48.666;8.948;2022-11-23T04:11:37;0.60;99.90
20380;DHT22;10349;48.666;8.948;2022-11-23T04:14:02;0.60;99.90
20380;DHT22;10349;48.666;8.948;2022-11-23T04:16:28;0.60;99.90
20380;DHT22;10349;48.666;8.948;2022-11-23T04:18:54;0.60;99.90
20380;DHT22;10349;48.666;8.948;2022-11-23T04:21:20;0.70;99.90
20380;DHT22;10349;48.666;8.948;2022-11-23T04:23:46;0.80;99.90
20380;DHT22;10349;48.666;8.948;2022-11-23T04:26:13;0.90;99.90
20380;DHT22;10349;48.666;8.948;2022-11-23T04:28:42;1.00;99.90
20380;DHT22;10349;48.666;8.948;2022-11-23T04:31:07;1.20;99.90
20380;DHT22;10349;48.666;8.948;2022-11-23T04:33:43;1.20;99.90
20380;DHT22;10349;48.666;8.948;2022-11-23T04:36:09;1.30;99.90
20380;DHT22;10349;48.666;8.948;2022-11-23T04:38:35;1.30;99.90
20380;DHT22;10349;48.666;8.948;2022-11-23T04:41:01;1.30;99.90
20380;DHT22;10349;48.666;8.948;2022-11-23T04:43:27;1.30;99.90
20380;DHT22;10349;48.666;8.948;2022-11-23T04:45:53;1.30;99.90
20380;DHT22;10349;48.666;8.948;2022-11-23T04:48:26;1.40;99.90
20380;DHT22;10349;48.666;8.948;2022-11-23T04:50:53;1.40;99.90
20380;DHT22;10349;48.666;8.948;2022-11-23T04:53:25;1.40;99.90
20380;DHT22;10349;48.666;8.948;2022-11-23T04:55:50;1.40;99.90
20380;DHT22;10349;48.666;8.948;2022-11-23T04:58:16;1.40;99.90
20380;DHT22;10349;48.666;8.948;2022-11-23T05:00:42;1.40;99.90
20380;DHT22;10349;48.666;8.948;2022-11-23T05:03:09;1.50;99.90
20380;DHT22;10349;48.666;8.948;2022-11-23T05:05:39;1.50;99.90
20380;DHT22;10349;48.666;8.948;2022-11-23T05:08:06;1.50;99.90
20380;DHT22;10349;48.666;8.948;2022-11-23T05:10:59;1.50;99.90
20380;DHT22;10349;48.666;8.948;2022-11-23T05:13:25;1.40;99.90
20380;DHT22;10349;48.666;8.948;2022-11-23T05:15:51;1.60;99.90
20380;DHT22;10349;48.666;8.948;2022-11-23T05:18:22;1.60;99.90
20380;DHT22;10349;48.666;8.948;2022-11-23T05:20:49;1.60;99.90
20380;DHT22;10349;48.666;8.948;2022-11-23T05:23:15;1.50;99.90
20380;DHT22;10349;48.666;8.948;2022-11-23T05:25:43;1.40;99.90
20380;DHT22;10349;48.666;8.948;2022-11-23T05:28:17;1.30;99.90
20380;DHT22;10349;48.666;8.948;2022-11-23T05:30:43;1.40;99.90
20380;DHT22;10349;48.666;8.948;2022-11-23T05:33:09;1.40;99.90
20380;DHT22;10349;48.666;8.948;2022-11-23T05:35:36;1.40;99.90
20380;DHT22;10349;48.666;8.948;2022-11-23T05:38:02;1.40;99.90
20380;DHT22;10349;48.666;8.948;2022-11-23T05:40:30;1.40;99.90
20380;DHT22;10349;48.666;8.948;2022-11-23T05:42:58;1.40;99.90
20380;DHT22;10349;48.666;8.948;2022-11-23T05:45:25;1.40;99.90
20380;DHT22;10349;48.666;8.948;2022-11-23T05:47:56;1.50;99.90
20380;DHT22;10349;48.666;8.948;2022-11-23T05:50:34;1.50;99.90
20380;DHT22;10349;48.666;8.948;2022-11-23T05:53:19;1.50;99.90
20380;DHT22;10349;48.666;8.948;2022-11-23T05:55:49;1.50;99.90
20380;DHT22;10349;48.666;8.948;2022-11-23T05:58:16;1.50;99.90
20380;DHT22;10349;48.666;8.948;2022-11-23T06:00:42;1.50;99.90
20380;DHT22;10349;48.666;8.948;2022-11-23T06:03:09;1.50;99.90
20380;DHT22;10349;48.666;8.948;2022-11-23T06:05:35;1.40;99.90
20380;DHT22;10349;48.666;8.948;2022-11-23T06:08:01;1.40;99.90
20380;DHT22;10349;48.666;8.948;2022-11-23T06:10:27;1.40;99.90
20380;DHT22;10349;48.666;8.948;2022-11-23T06:12:54;1.30;99.90
20380;DHT22;10349;48.666;8.948;2022-11-23T06:15:21;1.30;99.90
20380;DHT22;10349;48.666;8.948;2022-11-23T06:17:48;1.30;99.90
20380;DHT22;10349;48.666;8.948;2022-11-23T06:20:18;1.30;99.90
20380;DHT22;10349;48.666;8.948;2022-11-23T06:22:53;1.30;99.90
20380;DHT22;10349;48.666;8.948;2022-11-23T06:25:21;1.30;99.90
20380;DHT22;10349;48.666;8.948;2022-11-23T06:27:58;1.30;99.90
20380;DHT22;10349;48.666;8.948;2022-11-23T06:30:28;1.30;99.90
20380;DHT22;10349;48.666;8.948;2022-11-23T06:33:03;1.30;99.90
20380;DHT22;10349;48.666;8.948;2022-11-23T06:35:32;1.30;99.90
20380;DHT22;10349;48.666;8.948;2022-11-23T06:37:59;1.40;99.90
20380;DHT22;10349;48.666;8.948;2022-11-23T06:40:24;1.40;99.90
20380;DHT22;10349;48.666;8.948;2022-11-23T06:42:57;1.40;99.90
20380;DHT22;10349;48.666;8.948;2022-11-23T06:45:29;1.40;99.90
20380;DHT22;10349;48.666;8.948;2022-11-23T06:47:59;1.40;99.90
20380;DHT22;10349;48.666;8.948;2022-11-23T06:50:28;1.30;99.90
20380;DHT22;10349;48.666;8.948;2022-11-23T06:52:56;1.30;99.90
20380;DHT22;10349;48.666;8.948;2022-11-23T06:55:51;1.30;99.90
20380;DHT22;10349;48.666;8.948;2022-11-23T06:58:22;1.30;99.90
20380;DHT22;10349;48.666;8.948;2022-11-23T07:00:52;1.20;99.90
20380;DHT22;10349;48.666;8.948;2022-11-23T07:03:24;1.20;99.90
20380;DHT22;10349;48.666;8.948;2022-11-23T07:06:08;1.20;99.90
20380;DHT22;10349;48.666;8.948;2022-11-23T07:08:39;1.20;99.90
20380;DHT22;10349;48.666;8.948;2022-11-23T07:11:27;1.20;99.90
20380;DHT22;10349;48.666;8.948;2022-11-23T07:13:57;1.20;99.90
20380;DHT22;10349;48.666;8.948;2022-11-23T07:16:31;1.20;99.90
20380;DHT22;10349;48.666;8.948;2022-11-23T07:18:58;1.20;99.90
20380;DHT22;10349;48.666;8.948;2022-11-23T07:21:26;1.10;99.90
20380;DHT22;10349;48.666;8.948;2022-11-23T07:23:55;1.10;99.90
20380;DHT22;10349;48.666;8.948;2022-11-23T07:26:21;1.10;99.90
20380;DHT22;10349;48.666;8.948;2022-11-23T07:28:50;1.10;99.90
20380;DHT22;10349;48.666;8.948;2022-11-23T07:31:25;1.10;99.90
20380;DHT22;10349;48.666;8.948;2022-11-23T07:33:53;1.10;99.90
20380;DHT22;10349;48.666;8.948;2022-11-23T07:36:21;1.10;99.90
20380;DHT22;10349;48.666;8.948;2022-11-23T07:38:52;1.10;99.90
20380;DHT22;10349;48.666;8.948;2022-11-23T07:41:24;1.30;99.90
20380;DHT22;10349;48.666;8.948;2022-11-23T07:44:28;1.20;99.90
20380;DHT22;10349;48.666;8.948;2022-11-23T07:47:01;1.20;99.90
20380;DHT22;10349;48.666;8.948;2022-11-23T07:49:32;1.20;99.90
20380;DHT22;10349;48.666;8.948;2022-11-23T07:52:04;1.20;99.90
20380;DHT22;10349;48.666;8.948;2022-11-23T07:54:31;1.20;99.90
20380;DHT22;10349;48.666;8.948;2022-11-23T07:56:58;1.30;99.90
20380;DHT22;10349;48.666;8.948;2022-11-23T07:59:25;1.30;99.90
20380;DHT22;10349;48.666;8.948;2022-11-23T08:01:54;1.30;99.90
20380;DHT22;10349;48.666;8.948;2022-11-23T08:04:22;1.30;99.90
20380;DHT22;10349;48.666;8.948;2022-11-23T08:06:54;1.30;99.90
20380;DHT22;10349;48.666;8.948;2022-11-23T08:09:22;1.40;99.90
20380;DHT22;10349;48.666;8.948;2022-11-23T08:11:48;1.40;99.90
20380;DHT22;10349;48.666;8.948;2022-11-23T08:14:17;1.40;99.90
20380;DHT22;10349;48.666;8.948;2022-11-23T08:16:51;1.40;99.90
20380;DHT22;10349;48.666;8.948;2022-11-23T08:19:24;1.50;99.90
20380;DHT22;10349;48.666;8.948;2022-11-23T08:21:53;1.70;99.90
20380;DHT22;10349;48.666;8.948;2022-11-23T08:24:22;1.80;99.90
20380;DHT22;10349;48.666;8.948;2022-11-23T08:26:59;1.80;99.90
20380;DHT22;10349;48.666;8.948;2022-11-23T08:29:35;1.90;99.90
20380;DHT22;10349;48.666;8.948;2022-11-23T08:32:05;2.00;99.90
20380;DHT22;10349;48.666;8.948;2022-11-23T08:34:35;2.10;99.90
20380;DHT22;10349;48.666;8.948;2022-11-23T08:37:05;2.20;99.90
20380;DHT22;10349;48.666;8.948;2022-11-23T08:39:32;2.20;99.90
20380;DHT22;10349;48.666;8.948;2022-11-23T08:41:58;2.30;99.90
20380;DHT22;10349;48.666;8.948;2022-11-23T08:44:24;2.30;99.90
20380;DHT22;10349;48.666;8.948;2022-11-23T08:46:50;2.50;99.90
20380;DHT22;10349;48.666;8.948;2022-11-23T08:49:16;2.50;99.90
20380;DHT22;10349;48.666;8.948;2022-11-23T08:51:42;2.50;99.90
20380;DHT22;10349;48.666;8.948;2022-11-23T08:54:08;2.50;99.90
20380;DHT22;10349;48.666;8.948;2022-11-23T08:56:39;2.80;99.90
20380;DHT22;10349;48.666;8.948;2022-11-23T08:59:04;2.90;99.90
20380;DHT22;10349;48.666;8.948;2022-11-23T09:01:30;3.00;99.90
20380;DHT22;10349;48.666;8.948;2022-11-23T09:03:56;3.00;99.90
20380;DHT22;10349;48.666;8.948;2022-11-23T09:06:22;3.10;99.90
20380;DHT22;10349;48.666;8.948;2022-11-23T09:08:54;3.30;99.90
20380;DHT22;10349;48.666;8.948;2022-11-23T09:11:20;3.30;99.90
20380;DHT22;10349;48.666;8.948;2022-11-23T09:13:49;3.60;99.90
20380;DHT22;10349;48.666;8.948;2022-11-23T09:16:15;3.70;99.90
20380;DHT22;10349;48.666;8.948;2022-11-23T09:18:41;3.80;99.90
20380;DHT22;10349;48.666;8.948;2022-11-23T09:21:06;3.80;99.90
20380;DHT22;10349;48.666;8.948;2022-11-23T09:23:37;3.80;99.90
20380;DHT22;10349;48.666;8.948;2022-11-23T09:26:04;4.10;99.90
20380;DHT22;10349;48.666;8.948;2022-11-23T09:28:31;4.10;99.90
20380;DHT22;10349;48.666;8.948;2022-11-23T09:30:57;4.20;99.90
20380;DHT22;10349;48.666;8.948;2022-11-23T09:33:24;4.50;99.90
20380;DHT22;10349;48.666;8.948;2022-11-23T09:36:00;4.50;99.90
20380;DHT22;10349;48.666;8.948;2022-11-23T09:38:27;4.70;99.90
20380;DHT22;10349;48.666;8.948;2022-11-23T09:41:11;4.80;99.90
20380;DHT22;10349;48.666;8.948;2022-11-23T09:43:54;4.80;99.90
20380;DHT22;10349;48.666;8.948;2022-11-23T09:49:16;5.10;99.90
20380;DHT22;10349;48.666;8.948;2022-11-23T09:51:43;5.10;99.90
20380;DHT22;10349;48.666;8.948;2022-11-23T09:54:22;5.20;99.90
20380;DHT22;10349;48.666;8.948;2022-11-23T09:56:53;5.10;99.90
20380;DHT22;10349;48.666;8.948;2022-11-23T10:02:00;5.10;99.90
20380;DHT22;10349;48.666;8.948;2022-11-23T10:04:32;5.30;99.90
20380;DHT22;10349;48.666;8.948;2022-11-23T10:26:19;6.10;99.90
20380;DHT22;10349;48.666;8.948;2022-11-23T10:28:47;6.20;99.90
20380;DHT22;10349;48.666;8.948;2022-11-23T10:31:23;6.30;99.90
20380;DHT22;10349;48.666;8.948;2022-11-23T10:34:08;6.50;99.90
20380;DHT22;10349;48.666;8.948;2022-11-23T10:36:38;6.50;99.90
20380;DHT22;10349;48.666;8.948;2022-11-23T10:39:18;6.60;99.90
20380;DHT22;10349;48.666;8.948;2022-11-23T10:41:45;6.50;99.90
20380;DHT22;10349;48.666;8.948;2022-11-23T10:44:35;6.60;99.90
20380;DHT22;10349;48.666;8.948;2022-11-23T10:47:04;6.70;99.90
20380;DHT22;10349;48.666;8.948;2022-11-23T10:49:34;6.70;99.90
20380;DHT22;10349;48.666;8.948;2022-11-23T10:52:03;6.80;99.90
20380;DHT22;10349;48.666;8.948;2022-11-23T10:54:46;7.10;99.90
20380;DHT22;10349;48.666;8.948;2022-11-23T11:00:19;7.20;99.90
20380;DHT22;10349;48.666;8.948;2022-11-23T11:02:53;7.30;99.90
20380;DHT22;10349;48.666;8.948;2022-11-23T11:07:59;7.50;99.90
20380;DHT22;10349;48.666;8.948;2022-11-23T11:10:46;7.60;99.90
20380;DHT22;10349;48.666;8.948;2022-11-23T11:13:42;7.50;99.90
20380;DHT22;10349;48.666;8.948;2022-11-23T11:18:59;7.50;99.90
20380;DHT22;10349;48.666;8.948;2022-11-23T11:21:35;7.30;99.90
20380;DHT22;10349;48.666;8.948;2022-11-23T11:24:14;7.40;99.90
20380;DHT22;10349;48.666;8.948;2022-11-23T11:26:52;7.60;99.90
20380;DHT22;10349;48.666;8.948;2022-11-23T11:29:38;7.50;99.90
20380;DHT22;10349;48.666;8.948;2022-11-23T11:32:05;7.60;99.90
20380;DHT22;10349;48.666;8.948;2022-11-23T11:34:42;7.60;99.90
20380;DHT22;10349;48.666;8.948;2022-11-23T11:37:36;7.60;99.90
20380;DHT22;10349;48.666;8.948;2022-11-23T11:40:15;7.80;99.90
20380;DHT22;10349;48.666;8.948;2022-11-23T11:45:47;7.80;99.90
20380;DHT22;10349;48.666;8.948;2022-11-23T11:48:19;7.80;99.90
20380;DHT22;10349;48.666;8.948;2022-11-23T11:50:56;7.90;99.90
20380;DHT22;10349;48.666;8.948;2022-11-23T11:53:32;7.80;99.90
20380;DHT22;10349;48.666;8.948;2022-11-23T11:59:13;7.90;99.90
20380;DHT22;10349;48.666;8.948;2022-11-23T12:01:53;8.10;99.90
20380;DHT22;10349;48.666;8.948;2022-11-23T12:04:40;8.10;99.90
20380;DHT22;10349;48.666;8.948;2022-11-23T12:09:42;8.20;99.90
20380;DHT22;10349;48.666;8.948;2022-11-23T12:12:15;8.10;99.90
20380;DHT22;10349;48.666;8.948;2022-11-23T12:14:41;8.00;99.90
20380;DHT22;10349;48.666;8.948;2022-11-23T12:20:37;8.20;99.90
20380;DHT22;10349;48.666;8.948;2022-11-23T12:23:14;8.10;99.90
20380;DHT22;10349;48.666;8.948;2022-11-23T12:31:46;8.30;99.90
20380;DHT22;10349;48.666;8.948;2022-11-23T12:40:17;8.30;99.90
20380;DHT22;10349;48.666;8.948;2022-11-23T12:42:49;8.30;99.90
20380;DHT22;10349;48.666;8.948;2022-11-23T12:48:08;8.20;99.90
20380;DHT22;10349;48.666;8.948;2022-11-23T12:50:48;8.30;99.90
20380;DHT22;10349;48.666;8.948;2022-11-23T12:58:49;8.20;99.90
20380;DHT22;10349;48.666;8.948;2022-11-23T13:01:21;8.20;99.90
20380;DHT22;10349;48.666;8.948;2022-11-23T13:17:56;8.30;99.90
20380;DHT22;10349;48.666;8.948;2022-11-23T13:22:57;8.30;99.90
20380;DHT22;10349;48.666;8.948;2022-11-23T13:25:28;8.30;99.90
20380;DHT22;10349;48.666;8.948;2022-11-23T13:30:27;8.30;99.90
20380;DHT22;10349;48.666;8.948;2022-11-23T13:33:02;8.30;99.90
20380;DHT22;10349;48.666;8.948;2022-11-23T13:42:58;8.20;99.90
20380;DHT22;10349;48.666;8.948;2022-11-23T13:45:28;8.40;99.90
20380;DHT22;10349;48.666;8.948;2022-11-23T13:50:55;8.40;99.90
20380;DHT22;10349;48.666;8.948;2022-11-23T13:53:34;8.40;99.90
20380;DHT22;10349;48.666;8.948;2022-11-23T13:56:28;8.30;99.90
20380;DHT22;10349;48.666;8.948;2022-11-23T14:04:40;8.40;99.90
20380;DHT22;10349;48.666;8.948;2022-11-23T14:10:02;8.40;99.90
20380;DHT22;10349;48.666;8.948;2022-11-23T14:15:18;8.30;99.90
20380;DHT22;10349;48.666;8.948;2022-11-23T14:18:07;8.40;99.90
20380;DHT22;10349;48.666;8.948;2022-11-23T14:42:02;8.10;99.90
20380;DHT22;10349;48.666;8.948;2022-11-23T14:44:29;8.10;99.90
20380;DHT22;10349;48.666;8.948;2022-11-23T14:47:01;8.10;99.90
20380;DHT22;10349;48.666;8.948;2022-11-23T14:49:27;8.00;99.90
20380;DHT22;10349;48.666;8.948;2022-11-23T14:51:53;7.90;99.90
20380;DHT22;10349;48.666;8.948;2022-11-23T14:54:19;7.90;99.90
20380;DHT22;10349;48.666;8.948;2022-11-23T14:56:50;7.80;99.90
20380;DHT22;10349;48.666;8.948;2022-11-23T15:04:57;7.60;99.90
20380;DHT22;10349;48.666;8.948;2022-11-23T15:07:29;7.50;99.90
20380;DHT22;10349;48.666;8.948;2022-11-23T15:10:15;7.50;99.90
20380;DHT22;10349;48.666;8.948;2022-11-23T15:12:44;7.40;99.90
20380;DHT22;10349;48.666;8.948;2022-11-23T15:15:28;7.30;99.90
20380;DHT22;10349;48.666;8.948;2022-11-23T15:17:57;7.20;99.90
20380;DHT22;10349;48.666;8.948;2022-11-23T15:20:27;7.20;99.90
20380;DHT22;10349;48.666;8.948;2022-11-23T15:22:54;7.20;99.90
20380;DHT22;10349;48.666;8.948;2022-11-23T15:25:20;7.10;99.90
20380;DHT22;10349;48.666;8.948;2022-11-23T15:27:47;7.10;99.90
20380;DHT22;10349;48.666;8.948;2022-11-23T15:30:27;7.10;99.90
20380;DHT22;10349;48.666;8.948;2022-11-23T15:33:02;6.90;99.90
20380;DHT22;10349;48.666;8.948;2022-11-23T15:35:34;6.90;99.90
20380;DHT22;10349;48.666;8.948;2022-11-23T15:38:03;6.90;99.90
20380;DHT22;10349;48.666;8.948;2022-11-23T15:40:32;6.70;99.90
20380;DHT22;10349;48.666;8.948;2022-11-23T15:43:00;6.80;99.90
20380;DHT22;10349;48.666;8.948;2022-11-23T15:48:33;6.80;99.90
20380;DHT22;10349;48.666;8.948;2022-11-23T15:51:03;6.80;99.90
20380;DHT22;10349;48.666;8.948;2022-11-23T15:56:21;6.60;99.90
20380;DHT22;10349;48.666;8.948;2022-11-23T15:58:48;6.50;99.90
20380;DHT22;10349;48.666;8.948;2022-11-23T16:01:15;6.50;99.90
20380;DHT22;10349;48.666;8.948;2022-11-23T16:03:47;6.50;99.90
20380;DHT22;10349;48.666;8.948;2022-11-23T16:06:24;6.40;99.90
20380;DHT22;10349;48.666;8.948;2022-11-23T16:08:52;6.40;99.90
20380;DHT22;10349;48.666;8.948;2022-11-23T16:11:19;6.30;99.90
20380;DHT22;10349;48.666;8.948;2022-11-23T16:13:45;6.30;99.90
20380;DHT22;10349;48.666;8.948;2022-11-23T16:16:19;6.40;99.90
20380;DHT22;10349;48.666;8.948;2022-11-23T16:18:48;6.50;99.90
20380;DHT22;10349;48.666;8.948;2022-11-23T16:21:20;6.50;99.90
20380;DHT22;10349;48.666;8.948;2022-11-23T16:23:50;6.40;99.90
20380;DHT22;10349;48.666;8.948;2022-11-23T16:26:17;6.40;99.90
20380;DHT22;10349;48.666;8.948;2022-11-23T16:28:53;6.50;99.90
20380;DHT22;10349;48.666;8.948;2022-11-23T16:31:37;6.50;99.90
20380;DHT22;10349;48.666;8.948;2022-11-23T16:34:15;6.40;99.90
20380;DHT22;10349;48.666;8.948;2022-11-23T16:36:41;6.60;99.90
20380;DHT22;10349;48.666;8.948;2022-11-23T16:39:07;6.60;99.90
20380;DHT22;10349;48.666;8.948;2022-11-23T16:41:33;6.60;99.90
20380;DHT22;10349;48.666;8.948;2022-11-23T16:43:58;6.70;99.90
20380;DHT22;10349;48.666;8.948;2022-11-23T16:46:24;6.50;99.90
20380;DHT22;10349;48.666;8.948;2022-11-23T16:48:50;6.50;99.90
20380;DHT22;10349;48.666;8.948;2022-11-23T16:51:18;6.50;99.90
20380;DHT22;10349;48.666;8.948;2022-11-23T16:53:45;6.50;99.90
20380;DHT22;10349;48.666;8.948;2022-11-23T16:56:19;6.40;99.90
20380;DHT22;10349;48.666;8.948;2022-11-23T16:58:46;6.40;99.90
20380;DHT22;10349;48.666;8.948;2022-11-23T17:01:23;6.40;99.90
20380;DHT22;10349;48.666;8.948;2022-11-23T17:03:50;6.20;99.90
20380;DHT22;10349;48.666;8.948;2022-11-23T17:06:18;6.20;99.90
20380;DHT22;10349;48.666;8.948;2022-11-23T17:08:48;6.20;99.90
20380;DHT22;10349;48.666;8.948;2022-11-23T17:11:26;6.20;99.90
20380;DHT22;10349;48.666;8.948;2022-11-23T17:14:00;6.20;99.90
20380;DHT22;10349;48.666;8.948;2022-11-23T17:16:29;6.20;99.90
20380;DHT22;10349;48.666;8.948;2022-11-23T17:18:56;6.30;99.90
20380;DHT22;10349;48.666;8.948;2022-11-23T17:21:27;6.10;99.90
20380;DHT22;10349;48.666;8.948;2022-11-23T17:24:00;6.10;99.90
20380;DHT22;10349;48.666;8.948;2022-11-23T17:26:35;5.90;99.90
20380;DHT22;10349;48.666;8.948;2022-11-23T17:29:11;6.00;99.90
20380;DHT22;10349;48.666;8.948;2022-11-23T17:31:47;5.90;99.90
20380;DHT22;10349;48.666;8.948;2022-11-23T17:34:14;5.80;99.90
20380;DHT22;10349;48.666;8.948;2022-11-23T17:36:50;5.90;99.90
20380;DHT22;10349;48.666;8.948;2022-11-23T17:39:23;5.60;99.90
20380;DHT22;10349;48.666;8.948;2022-11-23T17:41:51;5.70;99.90
20380;DHT22;10349;48.666;8.948;2022-11-23T17:44:19;5.70;99.90
20380;DHT22;10349;48.666;8.948;2022-11-23T17:46:49;5.60;99.90
20380;DHT22;10349;48.666;8.948;2022-11-23T17:49:18;5.60;99.90
20380;DHT22;10349;48.666;8.948;2022-11-23T17:51:48;5.50;99.90
20380;DHT22;10349;48.666;8.948;2022-11-23T17:54:15;5.50;99.90
20380;DHT22;10349;48.666;8.948;2022-11-23T17:56:51;5.50;99.90
20380;DHT22;10349;48.666;8.948;2022-11-23T17:59:25;5.40;99.90
20380;DHT22;10349;48.666;8.948;2022-11-23T18:02:03;5.30;99.90
20380;DHT22;10349;48.666;8.948;2022-11-23T18:04:30;5.50;99.90
20380;DHT22;10349;48.666;8.948;2022-11-23T18:07:02;5.30;99.90
20380;DHT22;10349;48.666;8.948;2022-11-23T18:09:30;5.30;99.90
20380;DHT22;10349;48.666;8.948;2022-11-23T18:11:57;5.30;99.90
20380;DHT22;10349;48.666;8.948;2022-11-23T18:14:30;5.30;99.90
20380;DHT22;10349;48.666;8.948;2022-11-23T18:16:58;5.20;99.90
20380;DHT22;10349;48.666;8.948;2022-11-23T18:19:28;5.40;99.90
20380;DHT22;10349;48.666;8.948;2022-11-23T18:21:59;5.20;99.90
20380;DHT22;10349;48.666;8.948;2022-11-23T18:24:55;5.20;99.90
20380;DHT22;10349;48.666;8.948;2022-11-23T18:27:24;5.10;99.90
20380;DHT22;10349;48.666;8.948;2022-11-23T18:29:53;5.30;99.90